Hammond, Louisiana
Current Conditions -  °F | °C
As of 10:15 AM on Thursday 29 Jan 2015 (Local Time) from KHDC Reporting Station
Clear Clear  
Wind Chill: 20°   Ceiling: Unl
Heat Index: 20°   Visibility: 10mi
Dew Point: 12°   Wind: 5mph
Humidity: 60%   Direction: 210°SSW
Pressure: 30.28"   Gusts: NA
Location:  30.5°N, 90.46°W
Report Text: KHDC 291615Z AUTO 21004KT 10SM CLR 20/12 A3028 RMK AO2
Loading
Personal Weather Stations






























Interactive Weather Map New forecast layout! Learn more

10-Day Weather Forecast

Advertisements
Track Severe Weather on mobile